Time;durP1;ratioP1;P1;durP2;ratioP2;P2;SDS_P1;SDS_P2;PMS_P1;PMS_P2;Temp;Humidity;BMP_temperature;BMP_pressure;BME280_temperature;BME280_humidity;BME280_pressure;Samples;Min_cycle;Max_cycle;Signal;HPM_P1;HPM_P2
2022/07/06 00:01:10;;;;;;;1999.90;999.90;;;13.30;99.90;;;;;;5072548;28;20186;-62
2022/07/06 00:03:37;;;;;;;1999.90;999.90;;;13.20;99.90;;;;;;5072718;28;20205;-62
2022/07/06 00:06:05;;;;;;;1999.90;999.90;;;13.20;99.90;;;;;;5072368;28;20667;-62
2022/07/06 00:08:33;;;;;;;1999.90;999.90;;;13.20;99.90;;;;;;5072416;28;20199;-62
2022/07/06 00:11:01;;;;;;;1999.90;999.90;;;13.20;99.90;;;;;;5072602;28;20217;-62
2022/07/06 00:13:28;;;;;;;1999.90;999.90;;;13.10;99.90;;;;;;5072157;28;20598;-62
2022/07/06 00:15:56;;;;;;;1999.90;999.90;;;13.00;99.90;;;;;;5072651;28;20240;-62
2022/07/06 00:18:23;;;;;;;1999.90;999.90;;;13.00;99.90;;;;;;5072557;28;20223;-62
2022/07/06 00:20:50;;;;;;;1999.90;999.90;;;13.00;99.90;;;;;;5072472;28;20191;-62
2022/07/06 00:23:17;;;;;;;1999.90;999.90;;;12.90;99.90;;;;;;5072191;28;20694;-62
2022/07/06 00:25:45;;;;;;;1999.90;999.90;;;12.90;99.90;;;;;;5072196;28;20204;-62
2022/07/06 00:28:12;;;;;;;1999.90;999.90;;;12.90;99.90;;;;;;5072482;28;20225;-62
2022/07/06 00:30:39;;;;;;;1999.90;999.90;;;12.90;99.90;;;;;;5072084;28;20687;-62
2022/07/06 00:33:06;;;;;;;1999.90;999.90;;;12.90;99.90;;;;;;5072454;28;20208;-62
2022/07/06 00:35:34;;;;;;;1999.90;999.90;;;12.80;99.90;;;;;;5072288;28;20202;-62
2022/07/06 00:38:01;;;;;;;1999.90;999.90;;;12.80;99.90;;;;;;5072412;28;20251;-62
2022/07/06 00:40:29;;;;;;;1999.90;999.90;;;12.80;99.90;;;;;;5072309;28;20202;-63
2022/07/06 00:42:58;;;;;;;1999.90;999.90;;;12.80;99.90;;;;;;5071947;28;20205;-62
2022/07/06 00:45:25;;;;;;;1999.90;999.90;;;12.80;99.90;;;;;;5072562;28;20206;-62
2022/07/06 00:47:52;;;;;;;1999.90;999.90;;;12.70;99.90;;;;;;5076344;28;20195;-62
2022/07/06 00:50:20;;;;;;;1999.90;999.90;;;12.70;99.90;;;;;;5076232;28;20212;-63
2022/07/06 00:52:49;;;;;;;1999.90;999.90;;;12.70;99.90;;;;;;5075838;28;20199;-62
2022/07/06 00:55:19;;;;;;;1999.90;999.90;;;12.70;99.90;;;;;;5076199;28;20201;-62
2022/07/06 00:57:46;;;;;;;1999.90;999.90;;;12.70;99.90;;;;;;5076098;28;20201;-62
2022/07/06 01:00:17;;;;;;;1999.90;999.90;;;12.60;99.90;;;;;;5076071;28;20205;-62
2022/07/06 01:02:45;;;;;;;1999.90;999.90;;;12.60;99.90;;;;;;5076359;28;20196;-62
2022/07/06 01:05:13;;;;;;;1999.90;999.90;;;12.60;99.90;;;;;;5075686;28;20194;-62
2022/07/06 01:07:43;;;;;;;1999.90;999.90;;;12.60;99.90;;;;;;5076002;28;20201;-62
2022/07/06 01:10:12;;;;;;;1999.90;999.90;;;12.60;99.90;;;;;;5075811;28;20225;-62
2022/07/06 01:12:40;;;;;;;1999.90;999.90;;;12.50;99.90;;;;;;5075703;28;20208;-62
2022/07/06 01:15:09;;;;;;;1999.90;999.90;;;12.60;99.90;;;;;;5075625;28;20233;-62
2022/07/06 01:17:40;;;;;;;1999.90;999.90;;;12.50;99.90;;;;;;5075463;28;20223;-62
2022/07/06 01:20:11;;;;;;;1999.90;999.90;;;12.50;99.90;;;;;;5075750;28;20185;-61
2022/07/06 01:22:39;;;;;;;1999.90;999.90;;;12.40;99.90;;;;;;5075644;28;20186;-61
2022/07/06 01:25:07;;;;;;;1999.90;999.90;;;12.40;99.90;;;;;;5075630;28;20209;-62
2022/07/06 01:27:37;;;;;;;1999.90;999.90;;;12.40;99.90;;;;;;5075752;28;20202;-62
2022/07/06 01:30:06;;;;;;;1999.90;999.90;;;12.40;99.90;;;;;;5075684;28;20213;-62
2022/07/06 01:32:33;;;;;;;1999.90;999.90;;;12.30;99.90;;;;;;5075510;28;20201;-62
2022/07/06 01:35:01;;;;;;;1999.90;999.90;;;12.30;99.90;;;;;;5075410;28;20244;-62
2022/07/06 01:37:29;;;;;;;1999.90;999.90;;;12.20;99.90;;;;;;5075403;28;20208;-62
2022/07/06 01:40:00;;;;;;;1999.90;999.90;;;12.20;99.90;;;;;;5075118;28;20680;-62
2022/07/06 01:42:28;;;;;;;1999.90;999.90;;;12.20;99.90;;;;;;5075245;28;20190;-62
2022/07/06 01:44:55;;;;;;;1999.90;999.90;;;12.20;99.90;;;;;;5075105;28;20202;-62
2022/07/06 01:47:22;;;;;;;1999.90;999.90;;;12.10;99.90;;;;;;5075276;28;20271;-62
2022/07/06 01:49:50;;;;;;;1999.90;999.90;;;12.10;99.90;;;;;;5075146;28;20249;-62
2022/07/06 01:52:17;;;;;;;1999.90;999.90;;;12.00;99.90;;;;;;5075266;28;20206;-62
2022/07/06 01:54:46;;;;;;;1999.90;999.90;;;12.00;99.90;;;;;;5075072;28;20546;-63
2022/07/06 01:57:13;;;;;;;1999.90;999.90;;;12.00;99.90;;;;;;5073876;28;20231;-62
2022/07/06 01:59:40;;;;;;;1999.90;999.90;;;12.00;99.90;;;;;;5074681;28;20200;-62
2022/07/06 02:02:07;;;;;;;1999.90;999.90;;;12.00;99.90;;;;;;5075049;28;20184;-61
2022/07/06 02:04:34;;;;;;;1999.90;999.90;;;11.90;99.90;;;;;;5074568;28;20616;-61
2022/07/06 02:07:01;;;;;;;1999.90;999.90;;;11.90;99.90;;;;;;5074901;28;20201;-62
2022/07/06 02:09:28;;;;;;;1999.90;999.90;;;11.90;99.90;;;;;;5074824;28;20203;-62
2022/07/06 02:11:57;;;;;;;1999.90;999.90;;;11.90;99.90;;;;;;5074749;28;20222;-62
2022/07/06 02:14:24;;;;;;;1999.90;999.90;;;11.90;99.90;;;;;;5074585;28;20245;-62
2022/07/06 02:16:51;;;;;;;1999.90;999.90;;;12.00;99.90;;;;;;5074952;28;20203;-62
2022/07/06 02:19:18;;;;;;;1999.90;999.90;;;11.90;99.90;;;;;;5074676;28;20203;-62
2022/07/06 02:21:45;;;;;;;1999.90;999.90;;;11.90;99.90;;;;;;5074490;28;20192;-62
2022/07/06 02:24:12;;;;;;;1999.90;999.90;;;11.90;99.90;;;;;;5074370;28;20562;-62
2022/07/06 02:26:39;;;;;;;1999.90;999.90;;;11.90;99.90;;;;;;5074558;28;20202;-62
2022/07/06 02:29:07;;;;;;;1999.90;999.90;;;11.90;99.90;;;;;;5074488;28;20201;-62
2022/07/06 02:31:34;;;;;;;1999.90;999.90;;;11.80;99.90;;;;;;5074334;28;20223;-62
2022/07/06 02:34:01;;;;;;;1999.90;999.90;;;11.80;99.90;;;;;;5074295;28;20198;-61
2022/07/06 02:36:28;;;;;;;1999.90;999.90;;;11.80;99.90;;;;;;5073954;28;20572;-62
2022/07/06 02:38:55;;;;;;;1999.90;999.90;;;11.70;99.90;;;;;;5074276;28;20197;-62
2022/07/06 02:41:22;;;;;;;1999.90;999.90;;;11.70;99.90;;;;;;5074181;28;20200;-62
2022/07/06 02:43:49;;;;;;;1999.90;999.90;;;11.60;99.90;;;;;;5074024;28;20205;-62
2022/07/06 02:46:18;;;;;;;1999.90;999.90;;;11.60;99.90;;;;;;5074074;28;20201;-62
2022/07/06 02:48:45;;;;;;;1999.90;999.90;;;11.60;99.90;;;;;;5073698;28;20661;-62
2022/07/06 02:51:12;;;;;;;1999.90;999.90;;;11.60;99.90;;;;;;5073861;28;20224;-62
2022/07/06 02:53:39;;;;;;;1999.90;999.90;;;11.50;99.90;;;;;;5073935;28;20210;-63
2022/07/06 02:56:06;;;;;;;1999.90;999.90;;;11.50;99.90;;;;;;5073642;28;20609;-62
2022/07/06 02:58:33;;;;;;;1999.90;999.90;;;11.50;99.90;;;;;;5073915;28;20208;-62
2022/07/06 03:01:00;;;;;;;1999.90;999.90;;;11.50;99.90;;;;;;5073850;28;20197;-62
2022/07/06 03:03:29;;;;;;;1999.90;999.90;;;11.50;99.90;;;;;;5073410;28;20207;-61
2022/07/06 03:05:56;;;;;;;1999.90;999.90;;;11.40;99.90;;;;;;5073396;28;20674;-61
2022/07/06 03:08:23;;;;;;;1999.90;999.90;;;11.50;99.90;;;;;;5073113;28;20217;-62
2022/07/06 03:10:50;;;;;;;1999.90;999.90;;;11.40;99.90;;;;;;5073545;28;20212;-62
2022/07/06 03:13:17;;;;;;;1999.90;999.90;;;11.40;99.90;;;;;;5073433;28;20241;-62
2022/07/06 03:15:44;;;;;;;1999.90;999.90;;;11.40;99.90;;;;;;5073212;28;20244;-62
2022/07/06 03:18:11;;;;;;;1999.90;999.90;;;11.30;99.90;;;;;;5073523;28;20198;-62
2022/07/06 03:20:40;;;;;;;1999.90;999.90;;;11.30;99.90;;;;;;5073409;28;20200;-61
2022/07/06 03:23:07;;;;;;;1999.90;999.90;;;11.30;99.90;;;;;;5073011;28;20199;-62
2022/07/06 03:25:34;;;;;;;1999.90;999.90;;;11.30;99.90;;;;;;5073052;28;20684;-62
2022/07/06 03:28:01;;;;;;;1999.90;999.90;;;11.30;99.90;;;;;;5073020;28;20196;-62
2022/07/06 03:30:28;;;;;;;1999.90;999.90;;;11.40;99.90;;;;;;5072823;28;20666;-62
2022/07/06 03:32:55;;;;;;;1999.90;999.90;;;11.40;99.90;;;;;;5073238;28;20198;-61
2022/07/06 03:35:22;;;;;;;1999.90;999.90;;;11.40;99.90;;;;;;5073205;28;20200;-62
2022/07/06 03:37:51;;;;;;;1999.90;999.90;;;11.40;99.90;;;;;;5073375;28;20208;-62
2022/07/06 03:40:18;;;;;;;1999.90;999.90;;;11.50;99.90;;;;;;5072574;28;20213;-62
2022/07/06 03:42:45;;;;;;;1999.90;999.90;;;11.50;99.90;;;;;;5072928;28;20201;-62
2022/07/06 03:45:12;;;;;;;1999.90;999.90;;;11.50;99.90;;;;;;5073011;28;20204;-62
2022/07/06 03:47:39;;;;;;;1999.90;999.90;;;11.50;99.90;;;;;;5073027;28;20199;-62
2022/07/06 03:50:07;;;;;;;1999.90;999.90;;;11.50;99.90;;;;;;5072948;28;20195;-62
2022/07/06 03:52:39;;;;;;;1999.90;999.90;;;11.50;99.90;;;;;;5072699;28;20224;-62
2022/07/06 03:55:09;;;;;;;1999.90;999.90;;;11.50;99.90;;;;;;5073003;28;20182;-62
2022/07/06 03:57:36;;;;;;;1999.90;999.90;;;11.50;99.90;;;;;;5072912;28;20180;-62
2022/07/06 04:00:04;;;;;;;1999.90;999.90;;;11.60;99.90;;;;;;5072550;28;20196;-62
2022/07/06 04:02:31;;;;;;;1999.90;999.90;;;11.60;99.90;;;;;;5072601;28;20279;-62
2022/07/06 04:04:59;;;;;;;1999.90;999.90;;;11.50;99.90;;;;;;5072840;28;20214;-61
2022/07/06 04:07:26;;;;;;;1999.90;999.90;;;11.60;99.90;;;;;;5072437;28;20692;-62
2022/07/06 04:09:53;;;;;;;1999.90;999.90;;;11.60;99.90;;;;;;5072713;28;20192;-62
2022/07/06 04:12:21;;;;;;;1999.90;999.90;;;11.60;99.90;;;;;;5072476;28;20211;-62
2022/07/06 04:14:49;;;;;;;1999.90;999.90;;;11.60;99.90;;;;;;5072353;28;20233;-62
2022/07/06 04:20:01;;;;;;;1999.90;999.90;;;11.70;99.90;;;;;;5072305;28;20171;-62
2022/07/06 04:22:28;;;;;;;1999.90;999.90;;;11.80;99.90;;;;;;5072272;28;20203;-62
2022/07/06 04:24:55;;;;;;;1999.90;999.90;;;11.90;99.90;;;;;;5072575;28;20196;-62
2022/07/06 04:27:23;;;;;;;1999.90;999.90;;;11.90;99.90;;;;;;5072224;28;20543;-62
2022/07/06 04:29:50;;;;;;;1999.90;999.90;;;11.90;99.90;;;;;;5072416;28;20696;-62
2022/07/06 04:32:17;;;;;;;1999.90;999.90;;;11.90;99.90;;;;;;5072523;28;20218;-61
2022/07/06 04:34:44;;;;;;;1999.90;999.90;;;12.00;99.90;;;;;;5072387;28;20214;-61
2022/07/06 04:37:12;;;;;;;1999.90;999.90;;;12.10;99.90;;;;;;5072381;28;20205;-62
2022/07/06 04:39:39;;;;;;;1999.90;999.90;;;12.10;99.90;;;;;;5072333;28;20206;-62
2022/07/06 04:42:06;;;;;;;1999.90;999.90;;;12.20;99.90;;;;;;5072230;28;20245;-62
2022/07/06 04:44:34;;;;;;;1999.90;999.90;;;12.20;99.90;;;;;;5072365;28;20196;-62
2022/07/06 04:47:01;;;;;;;1999.90;999.90;;;12.30;99.90;;;;;;5072091;28;20564;-62
2022/07/06 04:49:28;;;;;;;1999.90;999.90;;;12.30;99.90;;;;;;5071990;28;20567;-62
2022/07/06 04:51:55;;;;;;;1999.90;999.90;;;12.30;99.90;;;;;;5071926;28;20225;-63
2022/07/06 04:54:22;;;;;;;1999.90;999.90;;;12.50;99.90;;;;;;5072437;28;20201;-62
2022/07/06 04:56:49;;;;;;;1999.90;999.90;;;12.50;99.90;;;;;;5072215;28;20205;-62
2022/07/06 04:59:17;;;;;;;1999.90;999.90;;;12.50;99.90;;;;;;5071865;28;20205;-62
2022/07/06 05:01:45;;;;;;;1999.90;999.90;;;12.60;99.90;;;;;;5072084;28;20201;-61
2022/07/06 05:04:13;;;;;;;1999.90;999.90;;;12.60;99.90;;;;;;5071878;28;20598;-60
2022/07/06 05:06:40;;;;;;;1999.90;999.90;;;12.80;99.90;;;;;;5071816;28;20743;-62
2022/07/06 05:09:07;;;;;;;1999.90;999.90;;;12.80;99.90;;;;;;5072145;28;20533;-62
2022/07/06 05:11:34;;;;;;;1999.90;999.90;;;12.90;99.90;;;;;;5072198;28;20287;-61
2022/07/06 05:14:01;;;;;;;1999.90;999.90;;;13.10;99.90;;;;;;5071822;28;20234;-62
2022/07/06 05:16:28;;;;;;;1999.90;999.90;;;13.40;99.90;;;;;;5071784;28;20633;-61
2022/07/06 05:18:57;;;;;;;1999.90;999.90;;;14.20;99.90;;;;;;5071710;28;20207;-62
2022/07/06 05:21:24;;;;;;;1999.90;999.90;;;15.00;99.90;;;;;;5071917;28;20197;-62
2022/07/06 05:23:51;;;;;;;1999.90;999.90;;;15.80;99.90;;;;;;5071963;28;20201;-62
2022/07/06 05:26:18;;;;;;;1999.90;999.90;;;16.20;99.90;;;;;;5072194;28;20199;-63
2022/07/06 05:28:45;;;;;;;1999.90;999.90;;;16.40;99.90;;;;;;5071918;28;20213;-63
2022/07/06 05:31:12;;;;;;;1999.90;999.90;;;16.40;99.90;;;;;;5071791;28;20205;-63
2022/07/06 05:33:39;;;;;;;1999.90;999.90;;;17.00;99.90;;;;;;5075458;28;20217;-62
2022/07/06 05:36:08;;;;;;;1999.90;999.90;;;16.80;99.90;;;;;;5075443;28;20197;-64
2022/07/06 05:38:35;;;;;;;1999.90;999.90;;;17.00;99.90;;;;;;5075036;28;20675;-63
2022/07/06 05:41:02;;;;;;;1999.90;999.90;;;17.10;99.90;;;;;;5075360;28;20199;-64
2022/07/06 05:43:29;;;;;;;1999.90;999.90;;;17.60;99.90;;;;;;5075205;28;20201;-63
2022/07/06 05:45:56;;;;;;;1999.90;999.90;;;17.90;99.90;;;;;;5075254;28;20198;-64
2022/07/06 05:51:09;;;;;;;1999.90;999.90;;;17.90;99.90;;;;;;5075099;28;20184;-63
2022/07/06 05:53:36;;;;;;;1999.90;999.90;;;18.60;99.90;;;;;;5075029;28;20198;-64
2022/07/06 05:56:04;;;;;;;1999.90;999.90;;;18.60;99.90;;;;;;5074830;28;20292;-66
2022/07/06 05:58:31;;;;;;;1999.90;999.90;;;18.50;99.90;;;;;;5074915;28;20195;-62
2022/07/06 06:00:58;;;;;;;1999.90;999.90;;;18.70;99.90;;;;;;5074629;28;20557;-62
2022/07/06 06:03:25;;;;;;;1999.90;999.90;;;18.80;99.90;;;;;;5075204;28;20199;-62
2022/07/06 06:05:52;;;;;;;1999.90;999.90;;;18.80;99.90;;;;;;5074882;28;20202;-61
2022/07/06 06:08:21;;;;;;;1999.90;999.90;;;19.40;99.90;;;;;;5074569;28;20688;-62
2022/07/06 06:10:48;;;;;;;1999.90;999.90;;;19.50;99.90;;;;;;5074731;28;20195;-62
2022/07/06 06:13:15;;;;;;;1999.90;999.90;;;19.40;99.90;;;;;;5074258;28;20929;-62
2022/07/06 06:15:42;;;;;;;1999.90;999.90;;;19.50;99.90;;;;;;5074467;28;20233;-62
2022/07/06 06:18:09;;;;;;;1999.90;999.90;;;19.10;60.70;;;;;;5074336;28;20195;-62
2022/07/06 06:20:36;;;;;;;1999.90;999.90;;;19.20;99.90;;;;;;5074288;28;20195;-62
2022/07/06 06:23:04;;;;;;;1999.90;999.90;;;19.20;99.90;;;;;;5074221;28;20567;-62
2022/07/06 06:25:35;;;;;;;1999.90;999.90;;;19.40;99.90;;;;;;5074400;28;20668;-63
2022/07/06 06:28:03;;;;;;;1999.90;999.90;;;19.60;99.90;;;;;;5074515;28;20179;-62
2022/07/06 06:30:30;;;;;;;1999.90;999.90;;;20.50;87.20;;;;;;5074357;28;20206;-62
2022/07/06 06:33:08;;;;;;;1999.90;999.90;;;20.60;33.80;;;;;;5073998;28;20695;-62
2022/07/06 06:35:35;;;;;;;1999.90;999.90;;;20.70;22.40;;;;;;5074304;28;20216;-63
2022/07/06 06:38:02;;;;;;;1999.90;999.90;;;21.20;13.30;;;;;;5073946;28;20202;-63
2022/07/06 06:40:29;;;;;;;1999.90;999.90;;;21.60;1.00;;;;;;5074212;28;20201;-63
2022/07/06 06:42:57;;;;;;;1999.90;999.90;;;21.50;1.00;;;;;;5073870;28;20198;-63
2022/07/06 06:45:25;;;;;;;1999.90;999.90;;;21.70;1.00;;;;;;5073745;28;20210;-63
2022/07/06 06:47:52;;;;;;;1999.90;999.90;;;21.40;1.00;;;;;;5073758;28;20201;-63
2022/07/06 06:50:19;;;;;;;1999.90;999.90;;;21.40;1.00;;;;;;5073755;28;20203;-63
2022/07/06 06:52:46;;;;;;;1999.90;999.90;;;20.90;1.00;;;;;;5073511;28;20218;-63
2022/07/06 06:55:13;;;;;;;1999.90;999.90;;;20.60;1.00;;;;;;5073692;28;20201;-64
2022/07/06 06:57:40;;;;;;;1999.90;999.90;;;21.30;1.00;;;;;;5073700;28;20197;-63
2022/07/06 07:00:10;;;;;;;1999.90;999.90;;;21.70;1.00;;;;;;5073437;28;20210;-63
2022/07/06 07:02:38;;;;;;;1999.90;999.90;;;21.40;1.00;;;;;;5073838;28;20186;-62
2022/07/06 07:05:06;;;;;;;1999.90;999.90;;;21.80;1.00;;;;;;5073791;28;20252;-62
2022/07/06 07:07:34;;;;;;;1999.90;999.90;;;22.20;1.00;;;;;;5073585;28;20684;-63
2022/07/06 07:10:02;;;;;;;1999.90;999.90;;;22.30;1.00;;;;;;5073565;28;20205;-63
2022/07/06 07:12:30;;;;;;;1999.90;999.90;;;22.20;1.00;;;;;;5073309;28;20284;-63
2022/07/06 07:14:57;;;;;;;1999.90;999.90;;;21.70;1.00;;;;;;5073210;28;20249;-63
2022/07/06 07:17:25;;;;;;;1999.90;999.90;;;21.50;1.00;;;;;;5073513;28;20202;-63
2022/07/06 07:19:52;;;;;;;1999.90;999.90;;;20.80;1.00;;;;;;5073115;28;20611;-62
2022/07/06 07:22:19;;;;;;;1999.90;999.90;;;21.20;1.00;;;;;;5073432;28;20194;-62
2022/07/06 07:24:47;;;;;;;1999.90;999.90;;;21.70;1.00;;;;;;5073345;28;20207;-63
2022/07/06 07:27:14;;;;;;;1999.90;999.90;;;21.50;1.00;;;;;;5073332;28;20199;-62
2022/07/06 07:29:41;;;;;;;1999.90;999.90;;;22.40;1.00;;;;;;5073200;28;20198;-62
2022/07/06 07:32:08;;;;;;;1999.90;999.90;;;22.00;1.00;;;;;;5073171;28;20213;-62
2022/07/06 07:34:37;;;;;;;1999.90;999.90;;;21.80;1.00;;;;;;5073201;28;20203;-62
2022/07/06 07:37:04;;;;;;;1999.90;999.90;;;22.10;1.00;;;;;;5073056;28;20686;-63
2022/07/06 07:39:31;;;;;;;1999.90;999.90;;;21.20;1.00;;;;;;5073103;28;20198;-63
2022/07/06 07:41:58;;;;;;;1999.90;999.90;;;20.90;1.00;;;;;;5072911;28;20195;-63
2022/07/06 07:44:27;;;;;;;1999.90;999.90;;;21.20;1.00;;;;;;5072682;28;20694;-62
2022/07/06 07:46:54;;;;;;;1999.90;999.90;;;20.60;1.00;;;;;;5072997;28;20190;-62
2022/07/06 07:49:21;;;;;;;1999.90;999.90;;;19.80;1.00;;;;;;5072973;28;20207;-62
2022/07/06 07:51:50;;;;;;;1999.90;999.90;;;19.40;99.90;;;;;;5072279;28;20235;-62
2022/07/06 07:54:17;;;;;;;1999.90;999.90;;;19.20;1.00;;;;;;5072303;28;20712;-62
2022/07/06 07:56:45;;;;;;;1999.90;999.90;;;18.90;7.30;;;;;;5071794;28;20235;-62
2022/07/06 07:59:12;;;;;;;1999.90;999.90;;;18.70;1.00;;;;;;5072452;28;20607;-62
2022/07/06 08:01:39;;;;;;;1999.90;999.90;;;19.10;99.90;;;;;;5072569;28;20198;-62
2022/07/06 08:04:06;;;;;;;1999.90;999.90;;;20.60;1.00;;;;;;5072450;28;20683;-62
2022/07/06 08:06:33;;;;;;;1999.90;999.90;;;21.40;99.90;;;;;;5072681;28;20248;-62
2022/07/06 08:09:03;;;;;;;1999.90;999.90;;;21.30;1.00;;;;;;5072953;28;20240;-62
2022/07/06 08:11:30;;;;;;;1999.90;999.90;;;22.10;74.80;;;;;;5072365;28;20199;-62
2022/07/06 08:13:57;;;;;;;1999.90;999.90;;;22.20;1.00;;;;;;5072300;28;20241;-62
2022/07/06 08:16:25;;;;;;;1999.90;999.90;;;22.90;99.90;;;;;;5072380;28;20644;-62
2022/07/06 08:18:52;;;;;;;1999.90;999.90;;;24.20;1.00;;;;;;5072253;28;20198;-62
2022/07/06 08:21:19;;;;;;;1999.90;999.90;;;23.50;1.00;;;;;;5072481;28;20198;-62
2022/07/06 08:23:46;;;;;;;1999.90;999.90;;;22.40;99.90;;;;;;5072188;28;20195;-62
2022/07/06 08:26:14;;;;;;;1999.90;999.90;;;22.10;99.90;;;;;;5072630;28;20195;-63
2022/07/06 08:28:41;;;;;;;1999.90;999.90;;;23.00;99.90;;;;;;5072043;28;20199;-62
2022/07/06 08:31:08;;;;;;;1999.90;999.90;;;23.70;99.90;;;;;;5072483;28;20699;-63
2022/07/06 08:33:35;;;;;;;1999.90;999.90;;;23.80;1.00;;;;;;5072329;28;20219;-63
2022/07/06 08:36:03;;;;;;;1999.90;999.90;;;24.70;1.00;;;;;;5072069;28;20201;-63
2022/07/06 08:38:30;;;;;;;1999.90;999.90;;;24.00;99.90;;;;;;5072359;28;20191;-63
2022/07/06 08:40:58;;;;;;;1999.90;999.90;;;22.70;99.90;;;;;;5072057;28;20563;-63
2022/07/06 08:43:27;;;;;;;1999.90;999.90;;;22.50;99.90;;;;;;5071905;28;20201;-63
2022/07/06 08:45:55;;;;;;;1999.90;999.90;;;21.80;99.90;;;;;;5072315;28;20209;-63
2022/07/06 08:48:25;;;;;;;1999.90;999.90;;;21.70;99.90;;;;;;5072303;28;20209;-63
2022/07/06 08:50:53;;;;;;;1999.90;999.90;;;21.30;99.90;;;;;;5071981;28;20197;-62
2022/07/06 08:53:22;;;;;;;1999.90;999.90;;;20.70;1.00;;;;;;5071783;28;20221;-63
2022/07/06 08:55:51;;;;;;;1999.90;999.90;;;20.40;1.00;;;;;;5072209;28;20198;-63
2022/07/06 08:58:19;;;;;;;1999.90;999.90;;;20.70;1.00;;;;;;5072235;28;20194;-62
2022/07/06 09:00:47;;;;;;;1999.90;999.90;;;20.80;1.00;;;;;;5072322;28;20206;-63
2022/07/06 09:03:14;;;;;;;1999.90;999.90;;;20.90;89.20;;;;;;5072131;28;20197;-62
2022/07/06 09:05:43;;;;;;;1999.90;999.90;;;21.20;99.90;;;;;;5072179;28;20191;-62
2022/07/06 09:08:12;;;;;;;1999.90;999.90;;;21.00;1.00;;;;;;5074911;28;20688;-63
2022/07/06 09:10:39;;;;;;;1999.90;999.90;;;21.10;1.00;;;;;;5076067;28;20227;-63
2022/07/06 09:13:08;;;;;;;1999.90;999.90;;;22.00;1.00;;;;;;5075864;28;20207;-63
2022/07/06 09:15:38;;;;;;;1999.90;999.90;;;23.20;1.00;;;;;;5075530;28;20287;-63
2022/07/06 09:18:07;;;;;;;1999.90;999.90;;;23.50;1.00;;;;;;5075817;28;20178;-63
2022/07/06 09:20:35;;;;;;;1999.90;999.90;;;24.40;99.90;;;;;;5075789;28;20324;-63
2022/07/06 09:23:05;;;;;;;1999.90;999.90;;;24.50;99.90;;;;;;5075338;28;20559;-63
2022/07/06 09:25:33;;;;;;;1999.90;999.90;;;24.60;1.00;;;;;;5075366;28;20671;-63
2022/07/06 09:28:00;;;;;;;1999.90;999.90;;;24.40;99.90;;;;;;5075286;28;20191;-63
2022/07/06 09:30:28;;;;;;;1999.90;999.90;;;24.30;1.00;;;;;;5075297;28;20676;-63
2022/07/06 09:32:57;;;;;;;1999.90;999.90;;;24.30;1.00;;;;;;5075214;28;20211;-62
2022/07/06 09:35:27;;;;;;;1999.90;999.90;;;24.20;1.00;;;;;;5075490;28;20201;-63
2022/07/06 09:38:05;;;;;;;1999.90;999.90;;;24.80;99.90;;;;;;5075507;28;20187;-63
2022/07/06 09:40:35;;;;;;;1999.90;999.90;;;25.40;1.00;;;;;;5075404;28;20210;-63
2022/07/06 09:43:09;;;;;;;1999.90;999.90;;;25.70;1.00;;;;;;5074752;28;20697;-63
2022/07/06 09:45:37;;;;;;;1999.90;999.90;;;25.70;92.60;;;;;;5074467;28;20201;-63
2022/07/06 09:48:09;;;;;;;1999.90;999.90;;;25.10;1.00;;;;;;5074560;28;20220;-63
2022/07/06 09:50:45;;;;;;;1999.90;999.90;;;24.40;1.00;;;;;;5075154;28;20221;-63
2022/07/06 09:53:13;;;;;;;1999.90;999.90;;;23.40;1.00;;;;;;5074863;28;20234;-63
2022/07/06 09:55:44;;;;;;;1999.90;999.90;;;22.90;99.90;;;;;;5075106;28;20209;-63
2022/07/06 09:58:12;;;;;;;1999.90;999.90;;;23.50;99.90;;;;;;5074303;28;20189;-62
2022/07/06 10:00:39;;;;;;;1999.90;999.90;;;24.20;99.90;;;;;;5074660;28;20203;-62
2022/07/06 10:03:06;;;;;;;1999.90;999.90;;;24.20;33.40;;;;;;5074502;28;20195;-62
2022/07/06 10:05:34;;;;;;;1999.90;999.90;;;24.60;1.00;;;;;;5073869;28;20660;-61
2022/07/06 10:08:05;;;;;;;1999.90;999.90;;;25.00;1.00;;;;;;5074561;28;20195;-62
2022/07/06 10:10:33;;;;;;;1999.90;999.90;;;25.20;99.90;;;;;;5074807;28;20179;-63
2022/07/06 10:13:00;;;;;;;1999.90;999.90;;;25.30;1.00;;;;;;5074337;28;20193;-62
2022/07/06 10:15:31;;;;;;;1999.90;999.90;;;25.10;1.00;;;;;;5074239;28;20260;-62
2022/07/06 10:17:59;;;;;;;1999.90;999.90;;;25.70;99.90;;;;;;5073852;28;20594;-62
2022/07/06 10:20:31;;;;;;;1999.90;999.90;;;25.40;99.90;;;;;;5074002;28;20690;-62
2022/07/06 10:23:01;;;;;;;1999.90;999.90;;;23.80;1.00;;;;;;5074683;28;20195;-62
2022/07/06 10:25:29;;;;;;;1999.90;999.90;;;23.30;1.00;;;;;;5074542;28;20183;-63
2022/07/06 10:27:57;;;;;;;1999.90;999.90;;;23.20;1.00;;;;;;5074249;28;20235;-63
2022/07/06 10:30:26;;;;;;;1999.90;999.90;;;23.50;1.00;;;;;;5073976;28;20195;-63
2022/07/06 10:32:55;;;;;;;1999.90;999.90;;;24.30;99.90;;;;;;5074031;28;20247;-62
2022/07/06 10:35:22;;;;;;;1999.90;999.90;;;24.00;99.90;;;;;;5074040;28;20683;-62
2022/07/06 10:38:05;;;;;;;1999.90;999.90;;;23.60;81.10;;;;;;5073870;28;20205;-63
2022/07/06 10:43:31;;;;;;;1999.90;999.90;;;23.50;99.90;;;;;;5073395;28;20606;-62
2022/07/06 10:45:58;;;;;;;1999.90;999.90;;;23.10;1.00;;;;;;5074139;28;20551;-62
2022/07/06 10:48:25;;;;;;;1999.90;999.90;;;23.00;99.90;;;;;;5073491;28;20726;-62
2022/07/06 10:50:55;;;;;;;1999.90;999.90;;;22.80;99.90;;;;;;5073173;28;20203;-62
2022/07/06 10:53:26;;;;;;;1999.90;999.90;;;24.00;99.90;;;;;;5073185;28;20680;-62
2022/07/06 10:55:56;;;;;;;1999.90;999.90;;;24.70;1.00;;;;;;5073945;28;20272;-62
2022/07/06 10:58:52;;;;;;;1999.90;999.90;;;24.80;15.70;;;;;;5073493;28;20206;-61
2022/07/06 11:01:21;;;;;;;1999.90;999.90;;;24.70;99.90;;;;;;5071689;28;20203;-63
2022/07/06 11:03:49;;;;;;;1999.90;999.90;;;24.20;1.00;;;;;;5073761;28;20198;-63
2022/07/06 11:06:18;;;;;;;1999.90;999.90;;;24.80;1.00;;;;;;5073417;28;20563;-62
2022/07/06 11:08:53;;;;;;;1999.90;999.90;;;24.70;1.00;;;;;;5073221;28;20566;-62
2022/07/06 11:11:24;;;;;;;1999.90;999.90;;;23.60;99.90;;;;;;5073383;28;20179;-63
2022/07/06 11:13:54;;;;;;;1999.90;999.90;;;23.50;99.90;;;;;;5073188;28;20730;-62
2022/07/06 11:16:23;;;;;;;1999.90;999.90;;;23.10;1.00;;;;;;5073307;28;20175;-63
2022/07/06 11:19:00;;;;;;;1999.90;999.90;;;23.50;1.00;;;;;;5073480;28;20209;-63
2022/07/06 11:21:35;;;;;;;1999.90;999.90;;;23.20;1.00;;;;;;5073160;28;20191;-62
2022/07/06 11:24:02;;;;;;;1999.90;999.90;;;23.30;5.40;;;;;;5073157;28;20636;-62
2022/07/06 11:26:31;;;;;;;1999.90;999.90;;;23.40;1.00;;;;;;5072950;28;20664;-63
2022/07/06 11:29:00;;;;;;;1999.90;999.90;;;23.00;1.00;;;;;;5072984;28;20671;-62
2022/07/06 11:31:27;;;;;;;1999.90;999.90;;;23.30;99.90;;;;;;5072801;28;20672;-62
2022/07/06 11:33:54;;;;;;;1999.90;999.90;;;22.80;1.00;;;;;;5073146;28;20207;-62
2022/07/06 11:36:23;;;;;;;1999.90;999.90;;;22.10;1.00;;;;;;5073168;28;20195;-62
2022/07/06 11:38:51;;;;;;;1999.90;999.90;;;21.80;1.00;;;;;;5073098;28;20203;-62
2022/07/06 11:41:19;;;;;;;1999.90;999.90;;;22.30;1.00;;;;;;5072777;28;20214;-62
2022/07/06 11:43:50;;;;;;;1999.90;999.90;;;22.30;1.00;;;;;;5072896;28;20191;-62
2022/07/06 11:46:26;;;;;;;1999.90;999.90;;;22.80;99.90;;;;;;5072973;28;20191;-62
2022/07/06 11:48:55;;;;;;;1999.90;999.90;;;23.40;99.90;;;;;;5072790;28;20178;-63
2022/07/06 11:51:24;;;;;;;1999.90;999.90;;;23.60;99.90;;;;;;5072828;28;20199;-63
2022/07/06 11:53:53;;;;;;;1999.90;999.90;;;22.70;99.90;;;;;;5072721;28;20211;-63
2022/07/06 11:56:21;;;;;;;1999.90;999.90;;;23.00;99.90;;;;;;5072815;28;20261;-64
2022/07/06 11:58:52;;;;;;;1999.90;999.90;;;23.40;99.90;;;;;;5072560;28;20248;-63
2022/07/06 12:01:19;;;;;;;1999.90;999.90;;;23.10;99.90;;;;;;5072808;28;20183;-63
2022/07/06 12:03:47;;;;;;;1999.90;999.90;;;23.40;99.90;;;;;;5072921;28;20216;-62
2022/07/06 12:06:17;;;;;;;1999.90;999.90;;;22.90;1.00;;;;;;5072707;28;20244;-62
2022/07/06 12:08:46;;;;;;;1999.90;999.90;;;23.00;1.00;;;;;;5072749;28;20186;-63
2022/07/06 12:11:24;;;;;;;1999.90;999.90;;;22.90;99.90;;;;;;5072563;28;20990;-63
2022/07/06 12:13:54;;;;;;;1999.90;999.90;;;22.70;1.00;;;;;;5072391;28;20227;-63